createdAt,value
2023-02-15T00:02:02.230Z,75.40
2023-02-15T00:04:47.700Z,77.00
2023-02-15T00:07:17.127Z,83.13
2023-02-15T00:09:45.841Z,74.47
2023-02-15T00:12:12.944Z,75.00
2023-02-15T00:14:40.126Z,78.70
2023-02-15T00:17:07.259Z,77.40
2023-02-15T00:19:34.447Z,78.40
2023-02-15T00:22:01.530Z,68.90
2023-02-15T00:24:28.459Z,73.13
2023-02-15T00:26:55.485Z,78.97
2023-02-15T00:29:22.560Z,76.03
2023-02-15T00:31:49.792Z,77.23
2023-02-15T00:34:22.418Z,83.87
2023-02-15T00:36:49.905Z,83.30
2023-02-15T00:39:18.260Z,83.63
2023-02-15T00:41:46.618Z,82.67
2023-02-15T00:44:14.828Z,73.90
2023-02-15T00:46:42.016Z,71.77
2023-02-15T00:49:10.352Z,79.73
2023-02-15T00:51:38.478Z,79.17
2023-02-15T00:54:06.025Z,76.40
2023-02-15T00:56:33.104Z,78.30
2023-02-15T00:59:00.084Z,70.47
2023-02-15T01:01:27.571Z,71.23
2023-02-15T01:03:54.657Z,70.17
2023-02-15T01:06:22.107Z,83.07
2023-02-15T01:08:49.271Z,73.47
2023-02-15T01:11:25.786Z,78.77
2023-02-15T01:13:55.395Z,73.80
2023-02-15T01:16:24.000Z,75.07
2023-02-15T01:18:51.436Z,73.33
2023-02-15T01:21:21.226Z,68.73
2023-02-15T01:23:48.479Z,73.33
2023-02-15T01:26:16.563Z,65.07
2023-02-15T01:28:45.315Z,64.13
2023-02-15T01:31:15.508Z,60.87
2023-02-15T01:33:43.261Z,70.40
2023-02-15T01:36:10.988Z,68.23
2023-02-15T01:38:40.950Z,66.20
2023-02-15T01:41:27.623Z,78.87
2023-02-15T01:43:57.790Z,74.00
2023-02-15T01:46:51.767Z,74.77
2023-02-15T01:49:22.600Z,85.50
2023-02-15T01:51:53.949Z,76.53
2023-02-15T01:54:36.800Z,72.57
2023-02-15T01:57:09.975Z,69.90
2023-02-15T01:59:40.560Z,74.87
2023-02-15T02:02:10.049Z,71.13
2023-02-15T02:04:45.029Z,71.63
2023-02-15T02:07:15.548Z,66.33
2023-02-15T02:09:42.700Z,66.43
2023-02-15T02:12:10.722Z,55.07
2023-02-15T02:14:41.703Z,57.70
2023-02-15T02:17:31.804Z,56.37
2023-02-15T02:20:07.658Z,74.13
2023-02-15T02:22:43.755Z,71.67
2023-02-15T02:25:19.570Z,73.03
2023-02-15T02:27:49.688Z,61.60
2023-02-15T02:30:48.427Z,65.97
2023-02-15T02:33:36.264Z,63.63
2023-02-15T02:36:22.017Z,58.93
2023-02-15T02:39:09.082Z,71.57
2023-02-15T02:41:40.993Z,58.73
2023-02-15T02:44:29.048Z,61.30
2023-02-15T02:47:27.685Z,56.20
2023-02-15T02:50:03.781Z,57.57
2023-02-15T02:52:42.860Z,64.17
2023-02-15T02:55:21.636Z,57.90
2023-02-15T02:58:12.262Z,59.33
2023-02-15T03:00:51.854Z,63.70
2023-02-15T03:03:39.569Z,60.60
2023-02-15T03:06:20.073Z,62.67
2023-02-15T03:08:52.271Z,54.37
2023-02-15T03:11:19.507Z,52.93
2023-02-15T03:13:48.692Z,59.50
2023-02-15T03:16:28.543Z,59.03
2023-02-15T03:19:01.188Z,63.53
2023-02-15T03:21:58.952Z,61.07
2023-02-15T03:24:30.932Z,53.90
2023-02-15T03:26:59.197Z,57.30
2023-02-15T03:29:28.821Z,58.67
2023-02-15T03:32:03.286Z,59.40
2023-02-15T03:34:30.648Z,63.27
2023-02-15T03:37:08.526Z,66.70
2023-02-15T03:39:44.210Z,57.37
2023-02-15T03:42:13.323Z,61.80
2023-02-15T03:44:52.980Z,57.73
2023-02-15T03:47:25.288Z,55.03
2023-02-15T03:49:57.639Z,56.13
2023-02-15T03:52:29.075Z,66.00
2023-02-15T03:54:56.306Z,65.13
2023-02-15T03:57:47.442Z,58.23
2023-02-15T04:00:41.622Z,56.00
2023-02-15T04:03:29.821Z,58.07
2023-02-15T04:05:56.836Z,55.27
2023-02-15T04:08:43.937Z,56.37
2023-02-15T04:11:10.954Z,61.23
2023-02-15T04:13:37.845Z,60.93
2023-02-15T04:16:05.989Z,54.07
2023-02-15T04:18:58.492Z,55.43
2023-02-15T04:21:46.010Z,50.80
2023-02-15T04:24:32.513Z,54.40
2023-02-15T04:27:00.524Z,59.33
2023-02-15T04:29:28.350Z,53.37
2023-02-15T04:31:56.933Z,54.90
2023-02-15T04:34:24.015Z,59.03
2023-02-15T04:36:51.365Z,56.03
2023-02-15T04:39:19.387Z,58.17
2023-02-15T04:41:47.127Z,53.77
2023-02-15T04:44:14.126Z,58.10
2023-02-15T04:46:41.139Z,56.10
2023-02-15T04:49:09.641Z,55.97
2023-02-15T04:51:36.639Z,60.30
2023-02-15T04:54:03.570Z,51.53
2023-02-15T04:56:31.213Z,63.83
2023-02-15T04:58:58.241Z,61.00
2023-02-15T05:01:25.311Z,59.00
2023-02-15T05:03:52.319Z,54.10
2023-02-15T05:06:19.429Z,58.20
2023-02-15T05:08:46.415Z,51.63
2023-02-15T05:11:13.474Z,56.73
2023-02-15T05:13:40.372Z,51.97
2023-02-15T05:16:07.402Z,60.37
2023-02-15T05:18:34.406Z,57.77
2023-02-15T05:21:01.394Z,57.60
2023-02-15T05:23:28.355Z,58.57
2023-02-15T05:26:14.097Z,60.97
2023-02-15T05:28:41.078Z,53.33
2023-02-15T05:31:15.514Z,60.60
2023-02-15T05:33:42.614Z,56.30
2023-02-15T05:36:10.347Z,52.20
2023-02-15T05:38:40.465Z,57.03
2023-02-15T05:41:08.372Z,52.63
2023-02-15T05:43:35.651Z,54.20
2023-02-15T05:46:04.258Z,54.53
2023-02-15T05:48:32.529Z,54.80
2023-02-15T05:51:03.590Z,52.27
2023-02-15T05:53:33.107Z,53.40
2023-02-15T05:56:01.668Z,54.03
2023-02-15T05:58:34.855Z,53.07
2023-02-15T06:01:09.546Z,60.33
2023-02-15T06:03:36.738Z,52.50
2023-02-15T06:06:05.512Z,56.50
2023-02-15T06:08:33.899Z,53.13
2023-02-15T06:11:01.881Z,50.10
2023-02-15T06:13:29.292Z,58.47
2023-02-15T06:15:56.548Z,48.70
2023-02-15T06:18:24.030Z,53.17
2023-02-15T06:20:50.983Z,53.30
2023-02-15T06:23:18.165Z,62.30
2023-02-15T06:25:46.868Z,51.83
2023-02-15T06:28:14.454Z,49.10
2023-02-15T06:30:41.485Z,53.30
2023-02-15T06:33:08.624Z,55.77
2023-02-15T06:35:35.597Z,52.17
2023-02-15T06:38:02.583Z,53.40
2023-02-15T06:40:29.592Z,54.23
2023-02-15T06:42:56.627Z,48.43
2023-02-15T06:45:23.555Z,58.57
2023-02-15T06:47:50.829Z,59.07
2023-02-15T06:50:17.794Z,57.90
2023-02-15T06:52:44.765Z,56.27
2023-02-15T06:55:11.874Z,52.73
2023-02-15T06:57:38.977Z,60.03
2023-02-15T07:00:07.070Z,52.37
2023-02-15T07:02:34.341Z,53.13
2023-02-15T07:05:01.322Z,53.80
2023-02-15T07:07:28.372Z,52.87
2023-02-15T07:09:55.393Z,58.90
2023-02-15T07:12:41.004Z,53.57
2023-02-15T07:15:10.472Z,58.73
2023-02-15T07:17:38.168Z,50.13
2023-02-15T07:20:08.789Z,53.50
2023-02-15T07:22:37.354Z,57.03
2023-02-15T07:25:06.674Z,55.17
2023-02-15T07:27:33.816Z,55.43
2023-02-15T07:30:01.791Z,50.13
2023-02-15T07:32:32.984Z,49.73
2023-02-15T07:35:00.790Z,48.97
2023-02-15T07:37:28.214Z,61.07
2023-02-15T07:39:55.227Z,47.73
2023-02-15T07:42:23.087Z,49.03
2023-02-15T07:44:53.708Z,48.80
2023-02-15T07:47:20.795Z,49.10
2023-02-15T07:49:50.368Z,46.87
2023-02-15T07:52:17.442Z,58.43
2023-02-15T07:54:44.546Z,49.43
2023-02-15T07:57:11.454Z,51.63
2023-02-15T07:59:38.558Z,53.63
2023-02-15T08:02:10.762Z,48.07
2023-02-15T08:04:37.794Z,46.77
2023-02-15T08:07:05.316Z,45.33
2023-02-15T08:09:32.455Z,43.53
2023-02-15T08:11:59.387Z,47.30
2023-02-15T08:14:28.409Z,41.10
2023-02-15T08:17:00.198Z,44.10
2023-02-15T08:19:29.440Z,40.30
2023-02-15T08:22:02.356Z,38.13
2023-02-15T08:24:32.355Z,42.70
2023-02-15T08:27:00.101Z,45.93
2023-02-15T08:29:29.754Z,39.30
2023-02-15T08:32:05.591Z,48.30
2023-02-15T08:34:36.176Z,42.33
2023-02-15T08:37:03.512Z,43.00
2023-02-15T08:39:30.527Z,41.77
2023-02-15T08:41:57.592Z,45.63
2023-02-15T08:44:25.438Z,38.93
2023-02-15T08:46:52.552Z,39.27
2023-02-15T08:49:22.107Z,39.97
2023-02-15T08:51:50.550Z,43.37
2023-02-15T08:54:20.592Z,40.77
2023-02-15T08:56:48.082Z,43.83
2023-02-15T08:59:21.232Z,41.80
2023-02-15T09:01:51.022Z,41.40
2023-02-15T09:04:19.039Z,46.57
2023-02-15T09:06:48.771Z,44.57
2023-02-15T09:09:17.749Z,41.40
2023-02-15T09:11:46.933Z,41.33
2023-02-15T09:14:16.578Z,42.80
2023-02-15T09:16:47.463Z,49.47
2023-02-15T09:19:14.562Z,40.30
2023-02-15T09:21:41.724Z,36.70
2023-02-15T09:24:12.396Z,39.57
2023-02-15T09:26:42.407Z,49.37
2023-02-15T09:29:10.726Z,41.83
2023-02-15T09:31:45.468Z,43.03
2023-02-15T09:34:18.138Z,44.97
2023-02-15T09:36:46.011Z,46.93
2023-02-15T09:39:25.400Z,51.97
2023-02-15T09:42:20.071Z,55.53
2023-02-15T09:45:08.947Z,58.30
2023-02-15T09:47:47.992Z,46.13
2023-02-15T09:50:32.418Z,55.03
2023-02-15T09:53:11.409Z,53.33
2023-02-15T09:55:41.424Z,54.97
2023-02-15T09:58:35.367Z,63.43
2023-02-15T10:51:02.608Z,73.70
2023-02-15T10:53:38.642Z,71.47
2023-02-15T10:56:26.036Z,66.33
2023-02-15T10:59:04.908Z,66.73
2023-02-15T11:01:50.658Z,70.97
2023-02-15T11:04:42.538Z,67.13
2023-02-15T11:11:27.669Z,68.03
2023-02-15T11:14:00.987Z,67.13
2023-02-15T11:16:39.086Z,67.80
2023-02-15T11:19:12.531Z,69.77
2023-02-15T11:21:50.969Z,73.20
2023-02-15T11:24:21.120Z,69.13
2023-02-15T11:27:14.158Z,65.37
2023-02-15T11:29:49.191Z,76.07
2023-02-15T11:32:32.450Z,66.33
2023-02-15T11:35:21.373Z,61.03
2023-02-15T11:37:57.338Z,70.50
2023-02-15T11:40:36.166Z,67.40
2023-02-15T11:43:20.516Z,69.10
2023-02-15T11:45:47.677Z,66.83
2023-02-15T11:48:16.203Z,67.97
2023-02-15T11:50:44.564Z,70.93
2023-02-15T11:53:17.930Z,65.50
2023-02-15T11:55:47.042Z,62.70
2023-02-15T11:58:22.771Z,63.90
2023-02-15T12:00:55.964Z,68.57
2023-02-15T12:03:30.253Z,70.70
2023-02-15T12:06:02.569Z,66.57
2023-02-15T12:08:41.289Z,62.03
2023-02-15T12:11:18.630Z,67.87
2023-02-15T12:14:03.791Z,73.90
2023-02-15T12:16:40.731Z,64.23
2023-02-15T12:19:35.578Z,60.70
2023-02-15T12:22:04.768Z,61.70
2023-02-15T12:24:39.237Z,59.33
2023-02-15T12:27:16.838Z,58.07
2023-02-15T12:29:54.574Z,70.83
2023-02-15T12:32:31.143Z,62.27
2023-02-15T12:35:09.194Z,60.43
2023-02-15T12:37:36.849Z,60.80
2023-02-15T12:40:21.745Z,58.90
2023-02-15T12:42:49.520Z,53.57
2023-02-15T12:45:32.582Z,52.40
2023-02-15T12:48:19.136Z,53.10
2023-02-15T12:50:58.281Z,56.73
2023-02-15T12:53:37.274Z,56.50
2023-02-15T12:56:10.008Z,41.77
2023-02-15T12:58:42.231Z,51.70
2023-02-15T13:01:22.220Z,51.43
2023-02-15T13:04:21.064Z,51.00
2023-02-15T13:06:52.647Z,50.53
2023-02-15T13:09:25.303Z,52.17
2023-02-15T13:11:52.527Z,48.43
2023-02-15T13:14:34.754Z,50.43
2023-02-15T13:17:03.945Z,46.13
2023-02-15T13:19:40.646Z,43.93
2023-02-15T13:22:13.779Z,46.33
2023-02-15T13:24:48.361Z,46.97
2023-02-15T13:27:21.401Z,52.73
2023-02-15T13:29:53.255Z,45.47
2023-02-15T13:32:41.991Z,50.07
2023-02-15T13:35:17.444Z,46.27
2023-02-15T13:37:54.054Z,51.77
2023-02-15T13:40:33.948Z,49.90
2023-02-15T13:43:03.174Z,44.33
2023-02-15T13:59:06.930Z,54.17
2023-02-15T14:02:13.122Z,51.67
2023-02-15T14:04:54.673Z,56.83
2023-02-15T14:07:53.608Z,47.47
2023-02-15T14:10:36.561Z,51.07
2023-02-15T14:13:38.413Z,48.50
2023-02-15T14:16:36.085Z,51.70
2023-02-15T14:19:31.961Z,49.00
2023-02-15T14:22:08.974Z,50.77
2023-02-15T14:24:38.743Z,51.13
2023-02-15T14:27:31.306Z,50.07
2023-02-15T14:30:06.039Z,51.87
2023-02-15T14:33:11.949Z,47.73
2023-02-15T14:35:41.058Z,57.13
2023-02-15T14:38:10.707Z,45.97
2023-02-15T14:41:05.319Z,49.13
2023-02-15T14:43:47.464Z,49.33
2023-02-15T14:46:39.154Z,47.37
2023-02-15T14:49:12.235Z,46.57
2023-02-15T14:51:46.489Z,54.00
2023-02-15T14:54:22.409Z,50.87
2023-02-15T14:57:01.672Z,49.73
2023-02-15T14:59:58.437Z,50.33
2023-02-15T15:02:49.751Z,52.10
2023-02-15T15:05:22.692Z,53.00
2023-02-15T15:07:54.837Z,44.43
2023-02-15T15:10:21.783Z,48.07
2023-02-15T15:12:56.041Z,51.40
2023-02-15T15:15:31.805Z,56.83
2023-02-15T15:18:00.234Z,52.17
2023-02-15T15:20:27.077Z,53.90
2023-02-15T15:23:12.701Z,50.70
2023-02-15T15:25:54.921Z,53.67
2023-02-15T15:28:47.828Z,49.57
2023-02-15T15:31:24.376Z,51.17
2023-02-15T15:34:17.723Z,52.70
2023-02-15T15:37:02.588Z,52.20
2023-02-15T15:39:50.675Z,55.93
2023-02-15T15:42:32.843Z,48.60
2023-02-15T15:45:29.055Z,53.77
2023-02-15T15:48:20.203Z,54.53
2023-02-15T15:50:49.619Z,52.30
2023-02-15T15:53:26.351Z,50.20
2023-02-15T15:56:01.060Z,51.47
2023-02-15T15:58:31.506Z,50.73
2023-02-15T16:01:08.867Z,49.93
2023-02-15T16:03:35.934Z,54.67
2023-02-15T16:06:03.187Z,51.80
2023-02-15T16:08:33.718Z,63.43
2023-02-15T16:11:08.643Z,53.97
2023-02-15T16:13:35.738Z,51.93
2023-02-15T16:16:03.123Z,53.87
2023-02-15T16:18:31.027Z,58.77
2023-02-15T16:21:02.522Z,62.30
2023-02-15T16:23:34.996Z,52.40
2023-02-15T16:26:20.508Z,61.57
2023-02-15T16:28:52.645Z,52.47
2023-02-15T16:31:20.638Z,61.50
2023-02-15T16:33:48.083Z,57.33
2023-02-15T16:36:26.514Z,57.93
2023-02-15T16:38:53.539Z,65.43
2023-02-15T16:41:25.208Z,59.60
2023-02-15T16:43:55.335Z,56.47
2023-02-15T16:46:44.202Z,53.33
2023-02-15T16:49:29.507Z,57.83
2023-02-15T16:51:58.729Z,55.20
2023-02-15T16:54:26.986Z,61.70
2023-02-15T16:56:54.296Z,64.20
2023-02-15T16:59:45.662Z,56.43
2023-02-15T17:02:40.533Z,60.47
2023-02-15T17:05:12.332Z,61.10
2023-02-15T17:07:49.291Z,66.10
2023-02-15T17:10:38.047Z,74.27
2023-02-15T17:13:12.336Z,60.27
2023-02-15T17:15:42.201Z,61.10
2023-02-15T17:18:18.904Z,65.70
2023-02-15T17:20:47.073Z,58.17
2023-02-15T17:23:33.351Z,67.47
2023-02-15T17:26:11.399Z,67.60
2023-02-15T17:28:38.699Z,63.53
2023-02-15T17:31:09.343Z,66.67
2023-02-15T17:33:40.396Z,64.20
2023-02-15T17:36:14.597Z,64.87
2023-02-15T17:39:00.523Z,65.73
2023-02-15T17:41:30.727Z,60.87
2023-02-15T17:43:57.876Z,70.40
2023-02-15T17:46:26.558Z,71.37
2023-02-15T17:48:56.084Z,66.80
2023-02-15T17:51:23.966Z,64.57
2023-02-15T17:54:09.632Z,74.27
2023-02-15T17:56:38.393Z,62.37
2023-02-15T17:59:10.293Z,62.27
2023-02-15T18:02:08.639Z,71.97
2023-02-15T18:04:55.823Z,47.83
2023-02-15T18:07:41.689Z,59.70
2023-02-15T18:10:37.946Z,78.20
2023-02-15T18:13:05.026Z,66.33
2023-02-15T18:15:31.945Z,68.47
2023-02-15T18:17:59.003Z,73.27
2023-02-15T18:20:31.619Z,64.93
2023-02-15T18:22:58.763Z,75.00
2023-02-15T18:25:25.847Z,65.80
2023-02-15T18:27:55.077Z,57.40
2023-02-15T18:30:26.292Z,63.87
2023-02-15T18:32:56.721Z,60.43
2023-02-15T18:35:26.298Z,67.23
2023-02-15T18:37:54.338Z,69.97
2023-02-15T18:40:25.143Z,63.37
2023-02-15T18:42:52.240Z,61.80
2023-02-15T18:45:25.183Z,63.30
2023-02-15T18:47:52.215Z,60.07
2023-02-15T18:50:20.904Z,59.13
2023-02-15T18:52:51.561Z,71.93
2023-02-15T18:55:24.890Z,61.13
2023-02-15T18:57:53.706Z,70.97
2023-02-15T19:00:29.253Z,55.83
2023-02-15T19:02:57.148Z,63.90
2023-02-15T19:05:27.520Z,60.77
2023-02-15T19:07:55.354Z,62.47
2023-02-15T19:10:25.772Z,64.17
2023-02-15T19:12:53.958Z,69.67
2023-02-15T19:15:23.898Z,72.93
2023-02-15T19:17:52.374Z,74.57
2023-02-15T19:20:22.889Z,65.17
2023-02-15T19:22:52.370Z,64.13
2023-02-15T19:25:29.199Z,72.10
2023-02-15T19:27:56.757Z,62.07
2023-02-15T19:30:32.947Z,59.47
2023-02-15T19:33:00.544Z,65.13
2023-02-15T19:35:31.861Z,67.77
2023-02-15T19:38:03.159Z,65.03
2023-02-15T19:40:35.641Z,59.27
2023-02-15T19:43:03.599Z,61.00
2023-02-15T19:45:32.502Z,67.20
2023-02-15T19:48:01.978Z,62.27
2023-02-15T19:50:31.305Z,57.77
2023-02-15T19:52:58.485Z,66.63
2023-02-15T19:55:30.747Z,80.67
2023-02-15T19:57:59.253Z,65.23
2023-02-15T20:00:31.868Z,63.27
2023-02-15T20:02:59.627Z,70.53
2023-02-15T20:05:31.763Z,67.07
2023-02-15T20:07:58.912Z,60.57
2023-02-15T20:10:30.997Z,60.23
2023-02-15T20:12:58.795Z,56.50
2023-02-15T20:15:29.872Z,58.40
2023-02-15T20:17:58.809Z,57.30
2023-02-15T20:20:48.719Z,64.07
2023-02-15T20:23:31.794Z,62.73
2023-02-15T20:26:01.065Z,81.13
2023-02-15T20:28:31.448Z,75.53
2023-02-15T20:30:59.349Z,81.83
2023-02-15T20:33:26.578Z,69.20
2023-02-15T20:35:53.746Z,85.83
2023-02-15T20:38:29.778Z,79.57
2023-02-15T20:41:18.184Z,73.40
2023-02-15T20:43:45.218Z,68.83
2023-02-15T20:46:12.481Z,68.90
2023-02-15T20:48:39.506Z,78.70
2023-02-15T20:51:11.991Z,71.53
2023-02-15T20:53:38.976Z,66.50
2023-02-15T20:56:05.966Z,75.60
2023-02-15T20:58:33.039Z,70.43
2023-02-15T21:01:00.089Z,72.37
2023-02-15T21:03:31.086Z,65.47
2023-02-15T21:05:59.414Z,63.63
2023-02-15T21:08:26.808Z,68.77
2023-02-15T21:10:54.340Z,52.63
2023-02-15T21:13:30.507Z,64.77
2023-02-15T21:15:58.481Z,59.23
2023-02-15T21:18:33.594Z,74.13
2023-02-15T21:21:04.697Z,82.23
2023-02-15T21:23:40.378Z,92.60
2023-02-15T21:26:15.026Z,92.87
2023-02-15T21:28:42.086Z,75.27
2023-02-15T21:31:17.200Z,97.23
2023-02-15T21:33:44.847Z,119.93
2023-02-15T21:36:39.885Z,113.97
2023-02-15T21:39:07.624Z,113.83
2023-02-15T21:41:53.280Z,94.33
2023-02-15T21:44:41.273Z,122.93
2023-02-15T21:47:44.990Z,99.37
2023-02-15T21:50:40.207Z,90.50
2023-02-15T21:53:10.621Z,80.03
2023-02-15T21:55:37.839Z,82.07
2023-02-15T21:58:05.899Z,84.97
2023-02-15T22:00:33.979Z,75.17
2023-02-15T22:03:02.099Z,74.77
2023-02-15T22:05:32.248Z,68.53
2023-02-15T22:07:59.925Z,80.53
2023-02-15T22:10:32.987Z,83.30
2023-02-15T22:13:01.432Z,81.20
2023-02-15T22:15:34.661Z,91.93
2023-02-15T22:18:02.591Z,83.37
2023-02-15T22:20:29.657Z,87.40
2023-02-15T22:22:56.583Z,103.03
2023-02-15T22:25:25.762Z,95.17
2023-02-15T22:27:54.181Z,91.63
2023-02-15T22:30:27.224Z,100.63
2023-02-15T22:32:56.229Z,88.07
2023-02-15T22:35:28.957Z,99.07
2023-02-15T22:37:56.480Z,103.60
2023-02-15T22:40:33.936Z,89.40
2023-02-15T22:43:03.919Z,104.23
2023-02-15T22:45:32.506Z,96.33
2023-02-15T22:48:00.666Z,97.63
2023-02-15T22:50:32.394Z,86.33
2023-02-15T22:53:03.543Z,84.53
2023-02-15T22:55:34.037Z,80.43
2023-02-15T22:58:01.512Z,71.70
2023-02-15T23:00:31.821Z,71.87
2023-02-15T23:02:58.816Z,69.67
2023-02-15T23:05:30.553Z,74.40
2023-02-15T23:07:58.134Z,89.03
2023-02-15T23:10:26.471Z,63.17
2023-02-15T23:13:19.709Z,71.20
2023-02-15T23:15:50.931Z,85.57
2023-02-15T23:18:39.036Z,87.93
2023-02-15T23:21:20.637Z,78.27
2023-02-15T23:23:53.769Z,81.27
2023-02-15T23:26:24.046Z,85.60
2023-02-15T23:28:52.423Z,93.03
2023-02-15T23:31:19.696Z,86.93
2023-02-15T23:33:47.440Z,63.07
2023-02-15T23:36:29.787Z,77.13
2023-02-15T23:38:59.704Z,87.57
2023-02-15T23:41:30.216Z,82.20
2023-02-15T23:44:00.512Z,70.30
2023-02-15T23:46:35.221Z,81.97
2023-02-15T23:49:14.638Z,78.13
2023-02-15T23:51:44.237Z,76.80
2023-02-15T23:54:14.111Z,79.63
2023-02-15T23:56:42.377Z,96.87
2023-02-15T23:59:16.781Z,98.77
